createdAt,value
2023-05-09T00:01:30.986Z,101358.84
2023-05-09T00:04:02.898Z,101359.03
2023-05-09T00:06:33.247Z,101361.91
2023-05-09T00:09:02.676Z,101360.66
2023-05-09T00:14:08.830Z,101353.59
2023-05-09T00:16:38.522Z,101363.53
2023-05-09T00:19:09.961Z,101367.38
2023-05-09T00:21:45.103Z,101364.44
2023-05-09T00:24:20.486Z,101353.81
2023-05-09T00:26:49.890Z,101362.06
2023-05-09T00:29:19.272Z,101370.31
2023-05-09T00:31:53.962Z,101363.78
2023-05-09T00:34:25.169Z,101370.56
2023-05-09T00:36:54.381Z,101372.75
2023-05-09T00:39:33.860Z,101358.66
2023-05-09T00:42:03.246Z,101357.44
2023-05-09T00:44:32.531Z,101367.88
2023-05-09T00:47:02.127Z,101373.69
2023-05-09T00:49:33.333Z,101366.63
2023-05-09T00:52:09.464Z,101370.72
2023-05-09T00:54:38.718Z,101368.66
2023-05-09T00:57:08.102Z,101374.00
2023-05-09T00:59:37.769Z,101374.84
2023-05-09T01:02:07.174Z,101339.69
2023-05-09T01:04:38.641Z,101371.38
2023-05-09T01:07:15.852Z,101376.53
2023-05-09T01:09:52.759Z,101377.91
2023-05-09T01:12:33.446Z,101370.75
2023-05-09T01:15:14.620Z,101369.50
2023-05-09T01:18:00.201Z,101372.66
2023-05-09T01:20:40.175Z,101315.03
2023-05-09T01:23:36.997Z,101375.59
2023-05-09T01:26:08.186Z,101366.41
2023-05-09T01:29:01.268Z,101376.03
2023-05-09T01:31:40.463Z,101378.34
2023-05-09T01:34:16.978Z,101377.47
2023-05-09T01:36:48.859Z,101382.28
2023-05-09T01:39:21.966Z,101377.16
2023-05-09T01:41:52.517Z,101376.38
2023-05-09T01:44:24.352Z,101387.97
2023-05-09T01:46:56.594Z,101384.50
2023-05-09T01:49:27.311Z,101382.28
2023-05-09T01:52:03.217Z,101377.50
2023-05-09T01:54:34.286Z,101378.81
2023-05-09T01:57:06.246Z,101379.25
2023-05-09T01:59:36.661Z,101385.66
2023-05-09T02:02:09.700Z,101381.25
2023-05-09T02:04:40.732Z,101375.78
2023-05-09T02:07:11.467Z,101379.16
2023-05-09T02:09:41.006Z,101320.97
2023-05-09T02:12:10.632Z,101354.19
2023-05-09T02:17:18.959Z,101365.63
2023-05-09T02:19:48.495Z,101375.88
2023-05-09T02:22:37.852Z,101369.66
2023-05-09T02:25:15.011Z,101370.25
2023-05-09T02:27:46.227Z,101373.09
2023-05-09T02:30:20.758Z,101366.09
2023-05-09T02:32:53.843Z,101375.06
2023-05-09T02:35:24.697Z,101381.22
2023-05-09T02:37:55.194Z,101375.34
2023-05-09T02:40:25.191Z,101362.94
2023-05-09T02:42:54.477Z,101375.47
2023-05-09T02:45:25.027Z,101359.72
2023-05-09T02:47:56.374Z,101367.66
2023-05-09T02:50:25.843Z,101376.47
2023-05-09T02:52:55.137Z,101379.25
2023-05-09T02:55:29.856Z,101374.31
2023-05-09T02:58:11.999Z,101379.09
2023-05-09T03:00:44.608Z,101380.22
2023-05-09T03:03:18.807Z,101382.13
2023-05-09T03:05:48.789Z,101382.13
2023-05-09T03:08:18.270Z,101381.91
2023-05-09T03:10:48.381Z,101375.47
2023-05-09T03:13:18.560Z,101382.31
2023-05-09T03:15:53.091Z,101386.03
2023-05-09T03:18:24.725Z,101388.78
2023-05-09T03:20:54.618Z,101376.91
2023-05-09T03:23:24.155Z,101384.09
2023-05-09T03:25:58.748Z,101376.28
2023-05-09T03:28:29.898Z,101370.16
2023-05-09T03:31:07.919Z,101395.72
2023-05-09T03:33:39.204Z,101390.78
2023-05-09T03:36:14.655Z,101383.78
2023-05-09T03:38:46.685Z,101394.34
2023-05-09T03:41:18.348Z,101390.34
2023-05-09T03:43:49.767Z,101399.75
2023-05-09T03:46:24.230Z,101392.66
2023-05-09T03:48:55.881Z,101400.84
2023-05-09T03:51:32.007Z,101391.72
2023-05-09T03:54:02.807Z,101395.34
2023-05-09T03:56:32.297Z,101396.47
2023-05-09T03:59:01.787Z,101401.00
2023-05-09T04:01:32.047Z,101400.50
2023-05-09T04:04:05.502Z,101391.56
2023-05-09T04:06:38.445Z,101400.84
2023-05-09T04:09:10.922Z,101397.38
2023-05-09T04:11:43.553Z,101395.53
2023-05-09T04:14:19.887Z,101399.50
2023-05-09T04:16:49.405Z,101408.59
2023-05-09T04:19:21.039Z,101401.94
2023-05-09T04:21:50.876Z,101408.06
2023-05-09T04:24:20.660Z,101405.72
2023-05-09T04:26:51.103Z,101405.06
2023-05-09T04:29:24.163Z,101400.25
2023-05-09T04:31:59.637Z,101397.13
2023-05-09T04:34:31.919Z,101403.59
2023-05-09T04:37:06.286Z,101398.94
2023-05-09T04:39:35.773Z,101404.38
2023-05-09T04:42:29.205Z,101402.56
2023-05-09T04:44:58.605Z,101397.31
2023-05-09T04:47:41.365Z,101402.50
2023-05-09T04:50:18.489Z,101399.00
2023-05-09T04:52:48.369Z,101398.94
2023-05-09T04:55:18.238Z,101400.69
2023-05-09T04:57:50.945Z,101401.50
2023-05-09T05:00:21.100Z,101392.03
2023-05-09T05:03:11.716Z,101402.44
2023-05-09T05:05:43.513Z,101390.31
2023-05-09T05:08:13.939Z,101396.63
2023-05-09T05:10:44.619Z,101407.97
2023-05-09T05:13:21.203Z,101385.16
2023-05-09T05:15:54.518Z,101407.72
2023-05-09T05:18:24.346Z,101407.63
2023-05-09T05:20:55.754Z,101381.59
2023-05-09T05:23:30.873Z,101405.84
2023-05-09T05:26:00.333Z,101406.66
2023-05-09T05:28:30.632Z,101389.38
2023-05-09T05:31:05.226Z,101400.59
2023-05-09T05:33:35.225Z,101392.84
2023-05-09T05:36:07.791Z,101404.00
2023-05-09T05:38:37.211Z,101397.00
2023-05-09T05:41:11.905Z,101398.72
2023-05-09T05:43:43.523Z,101400.44
2023-05-09T05:46:18.871Z,101394.31
2023-05-09T05:48:48.257Z,101391.69
2023-05-09T05:51:19.521Z,101392.63
2023-05-09T05:53:49.196Z,101385.75
2023-05-09T05:56:18.546Z,101396.97
2023-05-09T05:58:48.239Z,101397.78
2023-05-09T06:01:23.320Z,101396.94
2023-05-09T06:03:54.571Z,101347.47
2023-05-09T06:06:29.011Z,101371.09
2023-05-09T06:08:58.698Z,101381.63
2023-05-09T06:11:27.900Z,101385.22
2023-05-09T06:13:57.265Z,101383.59
2023-05-09T06:16:28.265Z,101388.03
2023-05-09T06:18:57.768Z,101389.81
2023-05-09T06:21:29.041Z,101380.38
2023-05-09T06:24:11.804Z,101372.63
2023-05-09T06:26:43.917Z,101375.47
2023-05-09T06:29:14.825Z,101367.66
2023-05-09T06:31:44.227Z,101334.78
2023-05-09T06:34:13.607Z,101366.88
2023-05-09T06:36:45.160Z,101362.59
2023-05-09T06:39:14.565Z,101357.38
2023-05-09T06:41:43.781Z,101360.81
2023-05-09T06:44:31.787Z,101363.53
2023-05-09T06:47:01.431Z,101357.63
2023-05-09T06:49:30.656Z,101337.84
2023-05-09T06:52:02.781Z,101359.69
2023-05-09T06:54:32.586Z,101345.84
2023-05-09T06:57:02.614Z,101309.56
2023-05-09T06:59:32.663Z,101357.09
2023-05-09T07:02:02.185Z,101351.00
2023-05-09T07:04:38.496Z,101350.31
2023-05-09T07:07:09.852Z,101340.88
2023-05-09T07:09:39.437Z,101282.16
2023-05-09T07:12:08.982Z,101342.06
2023-05-09T07:14:38.257Z,101347.06
2023-05-09T07:17:21.982Z,101344.44
2023-05-09T07:19:53.013Z,101319.47
2023-05-09T07:22:24.505Z,101340.41
2023-05-09T07:24:54.002Z,101330.97
2023-05-09T07:27:23.175Z,101322.19
2023-05-09T07:29:53.255Z,101336.03
2023-05-09T07:32:23.648Z,101332.56
2023-05-09T07:34:53.132Z,101316.88
2023-05-09T07:37:24.468Z,101338.44
2023-05-09T07:39:53.827Z,101335.88
2023-05-09T07:42:23.009Z,101331.59
2023-05-09T07:44:52.571Z,101323.03
2023-05-09T07:47:21.845Z,101311.09
2023-05-09T07:49:56.368Z,101321.69
2023-05-09T07:52:27.700Z,101320.81
2023-05-09T07:54:57.263Z,101309.53
2023-05-09T07:57:26.608Z,101310.31
2023-05-09T07:59:56.196Z,101305.78
2023-05-09T08:02:26.053Z,101299.59
2023-05-09T08:04:55.578Z,101297.72
2023-05-09T08:07:32.117Z,101288.78
2023-05-09T08:10:01.693Z,101280.19
2023-05-09T08:12:32.230Z,101277.69
2023-05-09T08:15:01.582Z,101268.41
2023-05-09T08:17:36.819Z,101281.44
2023-05-09T08:20:26.038Z,101264.09
2023-05-09T08:22:57.605Z,101271.75
2023-05-09T08:25:27.039Z,101266.44
2023-05-09T08:27:56.724Z,101257.50
2023-05-09T08:30:26.764Z,101258.50
2023-05-09T08:32:56.060Z,101260.41
2023-05-09T08:35:25.395Z,101251.75
2023-05-09T08:37:56.786Z,101258.66
2023-05-09T08:40:26.290Z,101253.28
2023-05-09T08:43:15.510Z,101254.22
2023-05-09T08:45:49.107Z,101239.50
2023-05-09T08:48:18.825Z,101247.94
2023-05-09T08:50:48.122Z,101248.69
2023-05-09T08:53:21.255Z,101248.75
2023-05-09T09:01:08.685Z,101247.69
2023-05-09T09:03:40.114Z,101246.22
2023-05-09T09:06:11.461Z,101254.94
2023-05-09T09:08:43.680Z,101239.34
2023-05-09T09:11:14.225Z,101246.31
2023-05-09T09:13:45.814Z,101241.97
2023-05-09T09:16:27.146Z,101232.41
2023-05-09T09:18:58.933Z,101225.47
2023-05-09T09:21:35.294Z,101209.91
2023-05-09T09:24:09.832Z,101225.44
2023-05-09T09:26:48.414Z,101219.25
2023-05-09T09:29:27.525Z,101218.28
2023-05-09T09:32:01.943Z,101209.50
2023-05-09T09:34:46.335Z,101204.19
2023-05-09T09:37:24.098Z,101203.84
2023-05-09T09:39:58.845Z,101200.81
2023-05-09T09:42:28.390Z,101194.06
2023-05-09T09:44:59.372Z,101174.63
2023-05-09T09:47:35.426Z,101198.94
2023-05-09T09:50:13.917Z,101181.81
2023-05-09T09:52:55.550Z,101197.72
2023-05-09T09:55:27.388Z,101159.72
2023-05-09T09:57:56.828Z,101186.25
2023-05-09T10:00:29.658Z,101187.41
2023-05-09T10:03:00.634Z,101190.78
2023-05-09T10:05:31.440Z,101183.31
2023-05-09T10:08:02.224Z,101181.75
2023-05-09T10:10:35.258Z,101179.84
2023-05-09T10:13:06.104Z,101177.00
2023-05-09T10:15:52.212Z,101183.09
2023-05-09T10:18:35.799Z,101183.78
2023-05-09T10:21:06.603Z,101179.03
2023-05-09T10:23:39.634Z,101132.25
2023-05-09T10:26:20.710Z,101176.00
2023-05-09T10:28:51.831Z,101182.50
2023-05-09T10:31:27.194Z,101155.19
2023-05-09T10:33:57.622Z,101182.09
2023-05-09T10:36:28.170Z,101165.53
2023-05-09T10:38:57.945Z,101177.59
2023-05-09T10:41:29.376Z,101167.78
2023-05-09T10:44:00.167Z,101165.13
2023-05-09T10:46:30.184Z,101163.38
2023-05-09T10:48:59.966Z,101160.72
2023-05-09T10:51:31.112Z,101154.44
2023-05-09T10:54:00.549Z,101158.41
2023-05-09T10:56:35.521Z,101148.47
2023-05-09T10:59:05.387Z,101138.66
2023-05-09T11:01:37.412Z,101135.34
2023-05-09T11:04:12.698Z,101139.97
2023-05-09T11:06:48.951Z,101139.94
2023-05-09T11:09:42.018Z,101117.69
2023-05-09T11:12:17.244Z,101131.31
2023-05-09T11:14:54.328Z,101129.34
2023-05-09T11:17:32.435Z,101108.41
2023-05-09T11:20:05.110Z,101128.56
2023-05-09T11:22:49.582Z,101081.91
2023-05-09T11:25:21.507Z,101127.50
2023-05-09T11:27:52.667Z,101115.56
2023-05-09T11:30:22.940Z,101127.31
2023-05-09T11:32:59.756Z,101077.25
2023-05-09T11:35:29.984Z,101117.97
2023-05-09T11:38:03.671Z,101098.06
2023-05-09T11:40:34.249Z,101090.25
2023-05-09T11:43:05.672Z,101083.22
2023-05-09T11:45:43.939Z,101093.53
2023-05-09T11:48:13.392Z,101043.25
2023-05-09T11:50:43.035Z,101091.31
2023-05-09T11:53:13.028Z,101072.75
2023-05-09T11:55:43.445Z,101085.97
2023-05-09T11:58:15.776Z,101079.25
2023-05-09T12:00:47.036Z,101078.88
2023-05-09T12:03:16.899Z,101072.44
2023-05-09T12:05:46.946Z,101062.88
2023-05-09T12:08:21.489Z,101059.97
2023-05-09T12:10:51.152Z,101068.78
2023-05-09T12:16:08.862Z,101056.41
2023-05-09T12:18:38.269Z,101059.41
2023-05-09T12:21:07.806Z,101058.19
2023-05-09T12:23:37.286Z,101050.91
2023-05-09T12:26:12.277Z,101046.41
2023-05-09T12:28:44.609Z,101064.19
2023-05-09T12:31:14.384Z,101060.22
2023-05-09T12:33:44.033Z,101049.19
2023-05-09T12:36:15.787Z,101035.78
2023-05-09T12:38:55.450Z,101021.47
2023-05-09T12:51:39.672Z,101044.53
2023-05-09T12:54:15.737Z,101037.59
2023-05-09T12:56:47.186Z,101012.50
2023-05-09T12:59:21.971Z,100983.13
2023-05-09T13:01:56.395Z,101003.88
2023-05-09T13:04:31.138Z,101028.91
2023-05-09T13:07:02.475Z,101019.34
2023-05-09T13:09:33.702Z,101016.66
2023-05-09T13:12:09.743Z,101010.50
2023-05-09T13:14:39.217Z,100975.91
2023-05-09T13:17:08.684Z,100987.91
2023-05-09T13:19:44.144Z,100996.53
2023-05-09T13:22:17.078Z,100997.22
2023-05-09T13:24:46.550Z,101000.44
2023-05-09T13:27:15.931Z,100994.09
2023-05-09T13:29:45.516Z,100975.63
2023-05-09T13:32:14.866Z,100974.38
2023-05-09T13:34:44.402Z,100958.53
2023-05-09T13:37:15.767Z,100949.59
2023-05-09T13:39:45.231Z,100949.47
2023-05-09T13:42:14.560Z,100961.00
2023-05-09T13:44:43.896Z,100967.38
2023-05-09T13:47:13.252Z,100970.38
2023-05-09T13:49:42.592Z,100974.16
2023-05-09T13:52:11.910Z,100965.72
2023-05-09T13:54:43.358Z,100937.25
2023-05-09T13:57:13.434Z,100969.38
2023-05-09T13:59:42.999Z,100955.66
2023-05-09T14:02:18.527Z,100969.63
2023-05-09T14:04:52.922Z,100953.25
2023-05-09T14:07:22.408Z,100963.69
2023-05-09T14:09:58.749Z,100965.53
2023-05-09T14:12:39.201Z,100960.34
2023-05-09T14:15:10.657Z,100962.13
2023-05-09T14:17:45.479Z,100956.09
2023-05-09T14:20:15.898Z,100962.19
2023-05-09T14:22:50.530Z,100957.88
2023-05-09T14:25:22.363Z,100948.34
2023-05-09T14:27:52.040Z,100952.75
2023-05-09T14:30:21.624Z,100955.31
2023-05-09T14:32:50.976Z,100936.34
2023-05-09T14:35:20.779Z,100937.16
2023-05-09T14:37:50.333Z,100929.38
2023-05-09T14:40:23.003Z,100898.22
2023-05-09T14:42:52.461Z,100937.06
2023-05-09T14:45:21.780Z,100930.94
2023-05-09T14:47:51.319Z,100933.47
2023-05-09T14:50:21.922Z,100937.72
2023-05-09T14:52:52.004Z,100916.00
2023-05-09T14:55:23.637Z,100932.31
2023-05-09T14:57:53.268Z,100899.41
2023-05-09T15:00:24.028Z,100924.41
2023-05-09T15:02:53.983Z,100917.38
2023-05-09T15:05:23.606Z,100928.53
2023-05-09T15:07:53.035Z,100923.09
2023-05-09T15:10:29.415Z,100925.69
2023-05-09T15:12:58.880Z,100878.38
2023-05-09T15:15:28.772Z,100925.00
2023-05-09T15:17:58.383Z,100919.06
2023-05-09T15:20:27.775Z,100910.53
2023-05-09T15:22:57.140Z,100899.44
2023-05-09T15:25:28.515Z,100904.75
2023-05-09T15:27:59.035Z,100912.53
2023-05-09T15:30:29.130Z,100910.78
2023-05-09T15:32:58.882Z,100909.06
2023-05-09T15:35:28.696Z,100889.22
2023-05-09T15:37:58.059Z,100906.53
2023-05-09T15:40:29.861Z,100907.44
2023-05-09T15:42:59.585Z,100912.72
2023-05-09T15:45:44.846Z,100881.66
2023-05-09T15:48:19.485Z,100907.66
2023-05-09T15:50:49.243Z,100898.19
2023-05-09T15:53:18.607Z,100898.22
2023-05-09T15:55:55.139Z,100898.84
2023-05-09T15:58:29.613Z,100882.00
2023-05-09T16:00:59.191Z,100895.59
2023-05-09T16:03:29.104Z,100889.13
2023-05-09T16:06:02.648Z,100891.16
2023-05-09T16:08:37.689Z,100900.00
2023-05-09T16:13:46.220Z,100897.50
2023-05-09T16:16:15.840Z,100879.28
2023-05-09T16:18:45.180Z,100884.47
2023-05-09T16:21:21.300Z,100887.91
2023-05-09T16:23:50.753Z,100879.28
2023-05-09T16:26:22.175Z,100878.44
2023-05-09T16:28:56.769Z,100867.81
2023-05-09T16:31:27.620Z,100863.25
2023-05-09T16:33:57.941Z,100865.47
2023-05-09T16:36:27.307Z,100871.44
2023-05-09T16:38:56.882Z,100864.13
2023-05-09T16:41:28.747Z,100872.28
2023-05-09T16:43:58.408Z,100874.97
2023-05-09T16:46:27.737Z,100874.16
2023-05-09T16:49:03.329Z,100878.44
2023-05-09T16:51:33.222Z,100858.56
2023-05-09T16:54:02.721Z,100880.13
2023-05-09T16:56:34.272Z,100881.81
2023-05-09T16:59:03.783Z,100887.78
2023-05-09T17:01:33.466Z,100881.56
2023-05-09T17:04:06.194Z,100877.13
2023-05-09T17:06:37.543Z,100881.38
2023-05-09T17:09:18.418Z,100882.97
2023-05-09T17:11:54.763Z,100883.69
2023-05-09T17:14:29.628Z,100885.28
2023-05-09T17:17:00.105Z,100880.84
2023-05-09T17:19:29.755Z,100890.97
2023-05-09T17:22:03.867Z,100892.50
2023-05-09T17:24:33.351Z,100895.78
2023-05-09T17:27:11.010Z,100891.31
2023-05-09T17:29:45.585Z,100892.06
2023-05-09T17:32:15.874Z,100896.19
2023-05-09T17:34:45.197Z,100888.41
2023-05-09T17:37:14.469Z,100867.50
2023-05-09T17:39:44.050Z,100891.75
2023-05-09T17:42:20.760Z,100890.75
2023-05-09T17:44:56.147Z,100901.91
2023-05-09T17:47:30.723Z,100902.03
2023-05-09T17:50:00.561Z,100902.13
2023-05-09T17:52:29.857Z,100908.19
2023-05-09T17:54:59.273Z,100904.75
2023-05-09T17:57:30.753Z,100903.75
2023-05-09T18:00:00.361Z,100892.53
2023-05-09T18:02:29.826Z,100907.25
2023-05-09T18:04:59.626Z,100907.28
2023-05-09T18:07:29.008Z,100903.94
2023-05-09T18:09:58.282Z,100894.50
2023-05-09T18:12:30.870Z,100897.34
2023-05-09T18:15:00.838Z,100896.56
2023-05-09T18:17:30.155Z,100889.69
2023-05-09T18:19:59.468Z,100887.19
2023-05-09T18:22:28.796Z,100895.00
2023-05-09T18:24:58.197Z,100889.88
2023-05-09T18:27:29.428Z,100893.34
2023-05-09T18:29:59.035Z,100873.47
2023-05-09T18:32:29.510Z,100889.91
2023-05-09T18:34:58.913Z,100891.66
2023-05-09T18:37:28.299Z,100895.09
2023-05-09T18:39:57.732Z,100889.94
2023-05-09T18:42:27.745Z,100890.81
2023-05-09T18:45:00.546Z,100891.69
2023-05-09T18:47:29.926Z,100892.56
2023-05-09T18:50:01.721Z,100890.06
2023-05-09T18:52:34.392Z,100885.84
2023-05-09T18:55:05.852Z,100888.53
2023-05-09T18:57:35.450Z,100891.22
2023-05-09T19:00:07.864Z,100886.94
2023-05-09T19:02:38.080Z,100889.56
2023-05-09T19:05:09.093Z,100882.66
2023-05-09T19:07:39.357Z,100881.78
2023-05-09T19:12:45.813Z,100887.06
2023-05-09T19:15:17.142Z,100891.38
2023-05-09T19:17:46.702Z,100881.91
2023-05-09T19:20:21.300Z,100894.06
2023-05-09T19:22:52.368Z,100890.59
2023-05-09T19:25:22.411Z,100895.75
2023-05-09T19:27:52.414Z,100894.03
2023-05-09T19:30:24.058Z,100897.41
2023-05-09T19:32:54.590Z,100895.59
2023-05-09T19:35:24.305Z,100887.75
2023-05-09T19:37:53.704Z,100883.34
2023-05-09T19:40:28.481Z,100884.13
2023-05-09T19:42:57.944Z,100887.59
2023-05-09T19:45:29.548Z,100888.44
2023-05-09T19:47:59.099Z,100881.50
2023-05-09T19:50:28.541Z,100871.88
2023-05-09T19:52:57.998Z,100878.81
2023-05-09T19:55:27.591Z,100874.44
2023-05-09T19:57:57.136Z,100884.81
2023-05-09T20:00:28.437Z,100885.69
2023-05-09T20:03:02.935Z,100862.34
2023-05-09T20:08:25.168Z,100882.31
2023-05-09T20:10:54.840Z,100879.81
2023-05-09T20:13:24.214Z,100879.78
2023-05-09T20:15:57.242Z,100873.69
2023-05-09T20:18:26.700Z,100878.00
2023-05-09T20:20:56.523Z,100865.81
2023-05-09T20:23:26.000Z,100851.91
2023-05-09T20:25:55.452Z,100876.09
2023-05-09T20:28:24.917Z,100876.94
2023-05-09T20:33:32.212Z,100843.97
2023-05-09T20:36:09.265Z,100873.41
2023-05-09T20:38:38.723Z,100882.91
2023-05-09T20:41:08.043Z,100871.66
2023-05-09T20:43:38.076Z,100875.09
2023-05-09T20:46:09.274Z,100873.31
2023-05-09T20:48:38.793Z,100854.16
2023-05-09T20:51:08.170Z,100874.91
2023-05-09T20:53:49.470Z,100872.28
2023-05-09T20:56:19.273Z,100879.16
2023-05-09T20:58:48.525Z,100874.03
2023-05-09T21:01:20.403Z,100875.78
2023-05-09T21:03:55.780Z,100873.31
2023-05-09T21:06:25.257Z,100873.25
2023-05-09T21:08:54.598Z,100877.53
2023-05-09T21:11:29.177Z,100872.34
2023-05-09T21:13:58.546Z,100871.44
2023-05-09T21:19:10.585Z,100865.47
2023-05-09T21:21:40.299Z,100848.06
2023-05-09T21:24:10.679Z,100874.94
2023-05-09T21:26:45.039Z,100863.59
2023-05-09T21:29:14.384Z,100874.00
2023-05-09T21:31:45.801Z,100873.91
2023-05-09T21:34:26.477Z,100879.97
2023-05-09T21:36:55.864Z,100877.38
2023-05-09T21:39:25.391Z,100876.47
2023-05-09T21:41:59.950Z,100875.56
2023-05-09T21:44:29.954Z,100875.56
2023-05-09T21:47:01.460Z,100870.41
2023-05-09T21:49:31.073Z,100860.00
2023-05-09T21:52:00.740Z,100836.59
2023-05-09T21:54:30.181Z,100864.44
2023-05-09T21:56:59.320Z,100867.88
2023-05-09T21:59:28.953Z,100866.25
2023-05-09T22:02:03.257Z,100861.97
2023-05-09T22:04:34.609Z,100853.44
2023-05-09T22:07:09.080Z,100854.31
2023-05-09T22:09:38.639Z,100859.53
2023-05-09T22:12:08.603Z,100851.78
2023-05-09T22:14:45.371Z,100851.88
2023-05-09T22:17:33.156Z,100853.56
2023-05-09T22:20:04.854Z,100850.97
2023-05-09T22:22:35.105Z,100851.88
2023-05-09T22:25:05.415Z,100849.28
2023-05-09T22:27:34.890Z,100844.13
2023-05-09T22:30:04.199Z,100846.63
2023-05-09T22:32:35.784Z,100844.03
2023-05-09T22:35:08.013Z,100847.56
2023-05-09T22:37:37.540Z,100841.56
2023-05-09T22:40:09.588Z,100839.03
2023-05-09T22:42:43.988Z,100828.69
2023-05-09T22:45:24.592Z,100840.00
2023-05-09T22:47:54.061Z,100836.53
2023-05-09T22:50:25.426Z,100837.47
2023-05-09T22:52:59.875Z,100833.94
2023-05-09T22:55:34.175Z,100814.84
2023-05-09T22:58:05.306Z,100828.56
2023-05-09T23:00:34.596Z,100821.50
2023-05-09T23:05:53.112Z,100838.00
2023-05-09T23:08:27.663Z,100834.59
2023-05-09T23:10:56.958Z,100806.03
2023-05-09T23:13:31.483Z,100835.50
2023-05-09T23:16:00.674Z,100818.19
2023-05-09T23:18:30.769Z,100815.59
2023-05-09T23:21:01.917Z,100829.56
2023-05-09T23:23:31.325Z,100822.72
2023-05-09T23:26:00.585Z,100836.53
2023-05-09T23:28:30.080Z,100832.25
2023-05-09T23:30:59.322Z,100809.72
2023-05-09T23:33:29.175Z,100833.06
2023-05-09T23:35:58.931Z,100826.97
2023-05-09T23:38:30.318Z,100823.50
2023-05-09T23:43:40.528Z,100827.78
2023-05-09T23:46:09.901Z,100826.06
2023-05-09T23:48:39.368Z,100828.63
2023-05-09T23:51:08.793Z,100821.69
2023-05-09T23:53:40.121Z,100822.59
2023-05-09T23:56:15.138Z,100826.09
2023-05-09T23:58:44.581Z,100802.69
